Willkommen auf der Webseite des Flugplatzes Uetersen/Heist PDF Drucken E-Mail

Liebe Fliegerfreunde, Piloten und Gäste,

wir wünschen ruhige Weihnachtstage und einen guten Rutsch nach 2018.

 

Bitte beachten Sie die NOTAMs zu den Öffnungszeiten an den Feiertagen, sowie zur Pistenbeschaffenheit.

 

Herr Szaguhn steht mit seinem Tower-Restaurant täglich außer Montags für Sie bereit.

 

Ihr Flugplatzteam

 

 

Zufallsbild

Aktuelle Termine

Mo Di Mi Do Fr Sa So
29 30 31 1 2 3 4
5 6 7 8 9 10 11
12 13 14 15 16 17 18
19 20 21 22 23 24 25
26 27 28 1 2 3 4

Pilotenwetter

[source: ADDS]
METAR
EDDH 222350Z 04006KT 9999 BKN045 M00/M03 Q1026 NOSIG =
TAF
TAF EDDH 222300Z 2300/2406 06006KT 9999 BKN040 BECMG 2308/2310 08011KT BECMG 2316/2318 07006KT =